Time;durP1;ratioP1;P1;durP2;ratioP2;P2;SDS_P1;SDS_P2;PMS_P1;PMS_P2;Temp;Humidity;BMP_temperature;BMP_pressure;BME280_temperature;BME280_humidity;BME280_pressure;Samples;Min_cycle;Max_cycle;Signal;HPM_P1;HPM_P2
2021/11/22 00:00:32;;;;;;;13.47;4.63;;;6.10;97.30;;;;;;5093100;28;20409;-84
2021/11/22 00:02:59;;;;;;;7.77;4.00;;;6.10;97.30;;;;;;5092775;28;20412;-84
2021/11/22 00:05:26;;;;;;;10.37;4.70;;;6.10;97.30;;;;;;5092689;28;20958;-84
2021/11/22 00:07:52;;;;;;;10.03;4.50;;;6.10;97.30;;;;;;5104409;28;20415;-83
2021/11/22 00:10:18;;;;;;;13.10;4.50;;;6.10;97.30;;;;;;5114821;28;20409;-84
2021/11/22 00:12:44;;;;;;;10.43;3.77;;;6.10;97.30;;;;;;5099802;28;20643;-85
2021/11/22 00:15:12;;;;;;;9.20;4.10;;;6.10;97.30;;;;;;5093409;28;20433;-84
2021/11/22 00:17:38;;;;;;;10.63;3.50;;;6.00;97.30;;;;;;5092944;28;20268;-84
2021/11/22 00:20:07;;;;;;;6.70;3.73;;;6.00;97.30;;;;;;5093245;28;20776;-84
2021/11/22 00:22:33;;;;;;;6.10;4.20;;;6.00;97.30;;;;;;5093777;28;20456;-84
2021/11/22 00:24:58;;;;;;;10.80;3.80;;;6.00;97.30;;;;;;5093326;28;20791;-84
2021/11/22 00:27:24;;;;;;;13.87;4.70;;;5.90;97.30;;;;;;5093421;28;20178;-84
2021/11/22 00:29:50;;;;;;;13.93;5.07;;;5.90;97.30;;;;;;5090475;28;20170;-84
2021/11/22 00:32:15;;;;;;;13.37;4.50;;;5.90;97.30;;;;;;5093113;28;20174;-84
2021/11/22 00:34:42;;;;;;;13.43;3.27;;;5.80;97.30;;;;;;5094822;28;20241;-84
2021/11/22 00:37:24;;;;;;;15.53;4.13;;;5.80;97.30;;;;;;5093169;28;20174;-84
2021/11/22 00:39:50;;;;;;;10.27;3.80;;;5.80;97.30;;;;;;5092711;28;20785;-84
2021/11/22 00:42:16;;;;;;;9.30;4.00;;;5.80;97.30;;;;;;5077269;28;20496;-85
2021/11/22 00:44:42;;;;;;;11.60;3.83;;;5.70;97.30;;;;;;5072734;28;20175;-84
2021/11/22 00:47:09;;;;;;;6.30;4.40;;;5.70;97.30;;;;;;5075935;28;20175;-84
2021/11/22 00:49:36;;;;;;;9.47;5.53;;;5.70;97.30;;;;;;5086574;28;20416;-85
2021/11/22 00:52:03;;;;;;;6.83;4.17;;;5.60;97.30;;;;;;5097005;28;21139;-84
2021/11/22 00:54:28;;;;;;;10.23;4.03;;;5.60;97.30;;;;;;5096750;28;20515;-85
2021/11/22 00:56:54;;;;;;;9.50;4.50;;;5.60;97.30;;;;;;5096678;28;20466;-85
2021/11/22 00:59:20;;;;;;;10.30;4.27;;;5.50;97.30;;;;;;5096593;28;20202;-84
2021/11/22 01:01:47;;;;;;;14.63;4.70;;;5.50;97.30;;;;;;5096048;28;20167;-85
2021/11/22 01:04:13;;;;;;;11.50;4.13;;;5.50;97.30;;;;;;5096551;28;20224;-85
2021/11/22 01:06:39;;;;;;;12.00;4.37;;;5.40;97.30;;;;;;5096890;28;20962;-84
2021/11/22 01:09:05;;;;;;;7.13;3.30;;;5.40;97.30;;;;;;5096155;28;20420;-84
2021/11/22 01:11:32;;;;;;;9.67;3.17;;;5.40;97.30;;;;;;5096507;28;20605;-85
2021/11/22 01:13:58;;;;;;;9.00;3.70;;;5.40;97.30;;;;;;5096345;28;20519;-84
2021/11/22 01:16:24;;;;;;;7.93;3.60;;;5.40;97.30;;;;;;5096275;28;20468;-84
2021/11/22 01:18:50;;;;;;;10.63;4.10;;;5.30;97.30;;;;;;5097281;28;20456;-84
2021/11/22 01:21:16;;;;;;;9.80;3.70;;;5.30;97.30;;;;;;5095631;28;20414;-83
2021/11/22 01:23:42;;;;;;;10.83;4.20;;;5.30;97.30;;;;;;5096064;28;20419;-84
2021/11/22 01:26:07;;;;;;;9.23;4.10;;;5.20;97.30;;;;;;5095573;28;20657;-84
2021/11/22 01:28:33;;;;;;;8.47;3.70;;;5.20;97.30;;;;;;5095671;28;20227;-85
2021/11/22 01:30:58;;;;;;;9.80;4.23;;;5.20;97.30;;;;;;5095650;28;20183;-85
2021/11/22 01:33:25;;;;;;;9.90;4.33;;;5.10;97.30;;;;;;5095037;28;20282;-85
2021/11/22 01:35:51;;;;;;;7.97;3.90;;;5.10;97.30;;;;;;5094026;28;20198;-85
2021/11/22 01:38:16;;;;;;;9.53;4.40;;;5.10;97.30;;;;;;5094041;28;20477;-85
2021/11/22 01:40:44;;;;;;;12.10;4.40;;;5.10;97.30;;;;;;5093896;28;20662;-85
2021/11/22 01:43:14;;;;;;;7.73;4.10;;;5.00;97.30;;;;;;5095423;28;20166;-85
2021/11/22 01:45:44;;;;;;;10.67;4.60;;;5.00;97.30;;;;;;5093943;28;20454;-85
2021/11/22 01:48:10;;;;;;;7.60;4.00;;;4.90;97.30;;;;;;5094020;28;20423;-84
2021/11/22 01:50:36;;;;;;;9.00;3.90;;;4.90;97.30;;;;;;5094101;28;20420;-84
2021/11/22 01:53:02;;;;;;;16.83;4.57;;;4.90;97.30;;;;;;5093591;28;20493;-84
2021/11/22 01:55:29;;;;;;;9.60;3.97;;;4.80;97.30;;;;;;5093543;28;20630;-84
2021/11/22 01:57:55;;;;;;;11.80;4.07;;;4.80;97.30;;;;;;5093550;28;20208;-84
2021/11/22 02:00:28;;;;;;;15.13;3.40;;;4.80;97.30;;;;;;5093264;28;20424;-84
2021/11/22 02:02:56;;;;;;;10.07;3.87;;;4.80;97.30;;;;;;5091963;28;20797;-84
2021/11/22 02:05:22;;;;;;;9.77;4.33;;;4.70;97.30;;;;;;5091978;28;20448;-84
2021/11/22 02:07:48;;;;;;;15.43;4.90;;;4.70;97.30;;;;;;5092036;28;20871;-85
2021/11/22 02:10:14;;;;;;;15.97;4.77;;;4.70;97.30;;;;;;5092148;28;20515;-84
2021/11/22 02:12:39;;;;;;;20.73;7.23;;;4.70;97.30;;;;;;5092620;28;20178;-85
2021/11/22 02:15:08;;;;;;;6.60;4.00;;;4.70;97.30;;;;;;5092794;28;20199;-84
2021/11/22 02:17:36;;;;;;;10.57;4.30;;;4.60;97.30;;;;;;5092820;28;20235;-84
2021/11/22 02:20:05;;;;;;;11.50;5.37;;;4.60;97.30;;;;;;5094871;28;20473;-84
2021/11/22 02:22:32;;;;;;;10.77;4.40;;;4.60;97.30;;;;;;5093706;28;20451;-84
2021/11/22 02:24:58;;;;;;;11.57;4.03;;;4.60;97.30;;;;;;5092910;28;20413;-84
2021/11/22 02:27:24;;;;;;;10.47;4.00;;;4.60;97.30;;;;;;5093264;28;20415;-84
2021/11/22 02:29:50;;;;;;;11.50;5.00;;;4.60;97.30;;;;;;5092044;28;20785;-85
2021/11/22 02:32:16;;;;;;;9.67;4.87;;;4.60;97.30;;;;;;5089876;28;20174;-84
2021/11/22 02:34:42;;;;;;;9.90;4.37;;;4.50;97.30;;;;;;5091458;28;20478;-85
2021/11/22 02:37:08;;;;;;;12.30;5.00;;;4.50;97.30;;;;;;5091502;28;20448;-85
2021/11/22 02:39:34;;;;;;;10.13;4.33;;;4.50;97.30;;;;;;5092686;28;20448;-85
2021/11/22 02:42:00;;;;;;;10.70;4.30;;;4.50;97.30;;;;;;5094059;28;20529;-85
2021/11/22 02:44:25;;;;;;;11.97;4.10;;;4.50;97.30;;;;;;5094484;28;20424;-85
2021/11/22 02:46:51;;;;;;;9.87;4.70;;;4.50;97.30;;;;;;5093852;28;20198;-85
2021/11/22 02:49:17;;;;;;;12.83;5.33;;;4.60;97.30;;;;;;5093926;28;20178;-85
2021/11/22 02:51:43;;;;;;;12.00;4.43;;;4.70;97.30;;;;;;5092177;28;20530;-85
2021/11/22 02:54:09;;;;;;;11.43;4.73;;;4.70;97.30;;;;;;5091338;28;20188;-85
2021/11/22 02:56:35;;;;;;;14.37;5.80;;;4.80;97.30;;;;;;5091755;28;20474;-85
2021/11/22 02:59:03;;;;;;;9.30;5.00;;;4.90;97.30;;;;;;5093160;28;20202;-85
2021/11/22 03:01:29;;;;;;;13.10;6.10;;;4.90;97.30;;;;;;5091615;28;20930;-85
2021/11/22 03:03:55;;;;;;;18.43;5.77;;;5.00;97.30;;;;;;5093859;28;20921;-85
2021/11/22 03:06:22;;;;;;;17.37;5.70;;;5.10;97.30;;;;;;5094356;28;20441;-85
2021/11/22 03:08:49;;;;;;;10.37;5.30;;;5.10;97.30;;;;;;5094624;28;20209;-84
2021/11/22 03:11:16;;;;;;;25.03;5.40;;;5.20;97.30;;;;;;5094113;28;20508;-84
2021/11/22 03:13:43;;;;;;;18.17;6.30;;;5.20;97.30;;;;;;5093043;28;20424;-84
2021/11/22 03:16:11;;;;;;;16.13;6.03;;;5.20;97.30;;;;;;5092390;28;20629;-85
2021/11/22 03:18:36;;;;;;;15.13;5.53;;;5.20;97.30;;;;;;5093442;28;20503;-85
2021/11/22 03:21:03;;;;;;;8.67;4.90;;;5.20;97.30;;;;;;5095028;28;20979;-85
2021/11/22 03:23:31;;;;;;;14.17;5.20;;;5.20;97.30;;;;;;5093265;28;20192;-84
2021/11/22 03:25:57;;;;;;;14.10;5.70;;;5.20;97.30;;;;;;5091165;28;20844;-85
2021/11/22 03:28:24;;;;;;;13.97;5.97;;;5.30;97.30;;;;;;5091467;28;20519;-84
2021/11/22 03:30:50;;;;;;;12.77;5.77;;;5.30;97.30;;;;;;5091084;28;20499;-85
2021/11/22 03:33:17;;;;;;;15.67;5.37;;;5.30;97.30;;;;;;5090976;28;20993;-85
2021/11/22 03:35:44;;;;;;;11.30;6.13;;;5.30;97.30;;;;;;5092085;28;20668;-85
2021/11/22 03:38:11;;;;;;;12.20;4.60;;;5.30;97.30;;;;;;5092977;28;20464;-84
2021/11/22 03:40:38;;;;;;;14.50;5.90;;;5.30;97.30;;;;;;5092747;28;20416;-85
2021/11/22 03:45:34;;;;;;;13.83;5.87;;;5.30;97.30;;;;;;5092164;28;20440;-84
2021/11/22 03:48:00;;;;;;;12.53;6.30;;;5.40;97.30;;;;;;5092326;28;20511;-84
2021/11/22 03:50:25;;;;;;;16.33;5.83;;;5.30;97.30;;;;;;5092100;28;20961;-84
2021/11/22 03:52:51;;;;;;;12.13;5.63;;;5.40;97.30;;;;;;5090719;28;20209;-84
2021/11/22 03:55:17;;;;;;;15.30;6.20;;;5.40;97.30;;;;;;5090536;28;20197;-84
2021/11/22 03:57:43;;;;;;;19.27;5.73;;;5.40;97.30;;;;;;5092035;28;20624;-84
2021/11/22 04:00:09;;;;;;;14.83;6.30;;;5.40;97.30;;;;;;5092534;28;20187;-83
2021/11/22 04:02:36;;;;;;;23.03;6.20;;;5.40;97.30;;;;;;5091888;28;20795;-84
2021/11/22 04:05:02;;;;;;;13.50;5.67;;;5.40;97.30;;;;;;5091804;28;20650;-84
2021/11/22 04:07:28;;;;;;;19.17;5.80;;;5.40;97.30;;;;;;5091641;28;20691;-84
2021/11/22 04:09:55;;;;;;;16.67;5.57;;;5.40;97.30;;;;;;5092130;28;20549;-84
2021/11/22 04:12:21;;;;;;;9.10;5.13;;;5.40;97.30;;;;;;5093919;28;20170;-84
2021/11/22 04:14:47;;;;;;;11.07;5.27;;;5.40;97.30;;;;;;5091603;28;20485;-84
2021/11/22 04:17:12;;;;;;;17.63;6.03;;;5.40;97.30;;;;;;5091322;28;20460;-84
2021/11/22 04:19:38;;;;;;;14.03;5.73;;;5.30;97.30;;;;;;5092494;28;20238;-84
2021/11/22 04:22:04;;;;;;;17.83;6.67;;;5.30;97.30;;;;;;5093470;28;20178;-84
2021/11/22 04:24:29;;;;;;;22.00;5.50;;;5.30;97.30;;;;;;5092719;28;20171;-84
2021/11/22 04:26:55;;;;;;;17.30;6.63;;;5.30;97.30;;;;;;5092684;28;20432;-84
2021/11/22 04:29:21;;;;;;;14.23;6.00;;;5.40;97.30;;;;;;5094385;28;20261;-84
2021/11/22 04:31:46;;;;;;;15.87;6.43;;;5.40;97.30;;;;;;5092432;28;20179;-84
2021/11/22 04:34:12;;;;;;;13.10;5.17;;;5.40;97.30;;;;;;5094139;28;20170;-84
2021/11/22 04:36:38;;;;;;;16.47;7.20;;;5.30;97.30;;;;;;5092249;28;20618;-84
2021/11/22 04:39:04;;;;;;;11.87;6.10;;;5.30;97.30;;;;;;5093860;28;20194;-85
2021/11/22 04:41:29;;;;;;;12.27;5.77;;;5.30;97.30;;;;;;5092102;28;20490;-84
2021/11/22 04:43:55;;;;;;;15.30;5.23;;;5.40;97.30;;;;;;5092752;28;20174;-84
2021/11/22 04:46:20;;;;;;;11.00;5.30;;;5.30;97.30;;;;;;5093223;28;20713;-84
2021/11/22 04:48:46;;;;;;;11.10;5.63;;;5.30;97.30;;;;;;5093197;28;20206;-84
2021/11/22 04:51:12;;;;;;;13.83;5.40;;;5.30;97.30;;;;;;5093163;28;20175;-84
2021/11/22 04:53:38;;;;;;;11.00;4.90;;;5.30;97.30;;;;;;5091064;28;20549;-84
2021/11/22 04:56:04;;;;;;;12.00;4.90;;;5.30;97.30;;;;;;5092075;28;20428;-84
2021/11/22 04:58:30;;;;;;;11.50;5.20;;;5.30;97.30;;;;;;5092619;28;20197;-84
2021/11/22 05:00:56;;;;;;;11.63;4.77;;;5.40;97.30;;;;;;5092560;28;20659;-84
2021/11/22 05:03:22;;;;;;;16.17;5.63;;;5.40;97.30;;;;;;5092897;28;20416;-84
2021/11/22 05:05:50;;;;;;;10.73;5.20;;;5.40;97.30;;;;;;5092733;28;20198;-84
2021/11/22 05:08:16;;;;;;;16.67;6.00;;;5.40;97.30;;;;;;5092555;28;20546;-84
2021/11/22 05:10:43;;;;;;;11.33;5.10;;;5.40;97.30;;;;;;5091839;28;20427;-85
2021/11/22 05:13:13;;;;;;;12.10;5.50;;;5.40;97.30;;;;;;5092224;28;20182;-84
2021/11/22 05:15:39;;;;;;;14.27;5.50;;;5.40;97.30;;;;;;5092276;28;20444;-85
2021/11/22 05:18:08;;;;;;;12.77;5.10;;;5.40;97.30;;;;;;5091926;28;20468;-84
2021/11/22 05:20:35;;;;;;;12.20;5.27;;;5.40;97.30;;;;;;5091994;28;20989;-84
2021/11/22 05:23:01;;;;;;;12.37;4.93;;;5.40;97.30;;;;;;5092107;28;20436;-84
2021/11/22 05:25:28;;;;;;;16.10;5.53;;;5.40;97.30;;;;;;5091996;28;20878;-84
2021/11/22 05:27:53;;;;;;;13.53;4.60;;;5.40;97.30;;;;;;5092382;28;20490;-85
2021/11/22 05:30:22;;;;;;;15.03;6.30;;;5.40;97.30;;;;;;5092091;28;20401;-84
2021/11/22 05:32:48;;;;;;;10.47;5.43;;;5.40;97.30;;;;;;5094147;28;20778;-84
2021/11/22 05:35:14;;;;;;;13.40;5.63;;;5.50;97.30;;;;;;5095893;28;20432;-84
2021/11/22 05:37:41;;;;;;;11.07;5.10;;;5.50;97.30;;;;;;5095716;28;20457;-84
2021/11/22 05:40:07;;;;;;;11.37;4.90;;;5.50;97.30;;;;;;5095828;28;20235;-84
2021/11/22 05:42:33;;;;;;;10.87;5.10;;;5.50;97.30;;;;;;5095845;28;20938;-84
2021/11/22 05:44:59;;;;;;;14.50;4.63;;;5.50;97.30;;;;;;5095579;28;20452;-84
2021/11/22 05:47:25;;;;;;;8.60;4.50;;;5.50;97.30;;;;;;5095698;28;20223;-84
2021/11/22 05:49:50;;;;;;;14.77;4.60;;;5.60;97.30;;;;;;5095914;28;20179;-84
2021/11/22 05:52:16;;;;;;;14.13;5.20;;;5.60;97.30;;;;;;5096195;28;20416;-83
2021/11/22 05:54:47;;;;;;;11.20;4.30;;;5.60;97.30;;;;;;5095772;28;20178;-84
2021/11/22 05:57:13;;;;;;;9.80;4.67;;;5.60;97.30;;;;;;5095440;28;20159;-83
2021/11/22 05:59:39;;;;;;;14.00;4.70;;;5.60;97.30;;;;;;5095381;28;20468;-83
2021/11/22 06:02:04;;;;;;;9.30;4.20;;;5.60;97.30;;;;;;5094944;28;20175;-84
2021/11/22 06:04:30;;;;;;;8.43;4.40;;;5.60;97.30;;;;;;5094647;28;20178;-84
2021/11/22 06:06:56;;;;;;;9.40;4.40;;;5.60;97.30;;;;;;5092786;28;20425;-84
2021/11/22 06:09:21;;;;;;;11.37;4.50;;;5.60;97.30;;;;;;5093214;28;20181;-85
2021/11/22 06:11:47;;;;;;;9.73;3.50;;;5.60;97.30;;;;;;5095044;28;20655;-84
2021/11/22 06:14:13;;;;;;;13.13;4.07;;;5.60;97.30;;;;;;5095059;28;20281;-84
2021/11/22 06:16:38;;;;;;;9.33;4.20;;;5.50;97.30;;;;;;5094512;28;20225;-84
2021/11/22 06:19:04;;;;;;;11.00;3.83;;;5.50;97.30;;;;;;5094832;28;20271;-85
2021/11/22 06:21:29;;;;;;;8.53;4.03;;;5.50;97.30;;;;;;5094741;28;20202;-85
2021/11/22 06:23:55;;;;;;;8.53;4.67;;;5.60;97.30;;;;;;5095528;28;20167;-84
2021/11/22 06:26:20;;;;;;;8.07;3.73;;;5.50;97.30;;;;;;5095727;28;20599;-84
2021/11/22 06:28:46;;;;;;;8.67;3.90;;;5.50;97.30;;;;;;5094469;28;20256;-85
2021/11/22 06:31:11;;;;;;;9.73;4.67;;;5.50;97.30;;;;;;5094766;28;20782;-84
2021/11/22 06:33:37;;;;;;;9.30;4.23;;;5.50;97.30;;;;;;5094556;28;20211;-85
2021/11/22 06:36:03;;;;;;;12.10;4.80;;;5.50;97.30;;;;;;5089364;28;20206;-84
2021/11/22 06:38:29;;;;;;;13.40;4.20;;;5.50;97.30;;;;;;5072870;28;20207;-85
2021/11/22 06:40:55;;;;;;;5.90;3.80;;;5.50;97.30;;;;;;5072830;28;20779;-85
2021/11/22 06:43:20;;;;;;;7.93;3.97;;;5.50;97.30;;;;;;5072500;28;20203;-85
2021/11/22 06:45:46;;;;;;;8.10;3.90;;;5.50;97.30;;;;;;5073870;28;20198;-85
2021/11/22 06:48:11;;;;;;;7.27;4.00;;;5.60;97.30;;;;;;5074273;28;20191;-84
2021/11/22 06:50:37;;;;;;;13.50;3.90;;;5.60;97.30;;;;;;5072786;28;20180;-83
2021/11/22 06:53:03;;;;;;;9.23;4.50;;;5.50;97.30;;;;;;5072738;28;20187;-84
2021/11/22 06:55:29;;;;;;;9.90;4.83;;;5.50;97.30;;;;;;5072657;28;20233;-85
2021/11/22 06:57:55;;;;;;;9.33;4.17;;;5.50;97.30;;;;;;5073176;28;20415;-85
2021/11/22 07:00:21;;;;;;;12.13;4.77;;;5.50;97.30;;;;;;5073907;28;20880;-85
2021/11/22 07:02:51;;;;;;;11.20;5.30;;;5.50;97.30;;;;;;5074248;28;20182;-84
2021/11/22 07:05:18;;;;;;;9.27;4.53;;;5.50;97.30;;;;;;5073796;28;20490;-84
2021/11/22 07:07:44;;;;;;;7.07;4.53;;;5.50;97.30;;;;;;5073800;28;20425;-84
2021/11/22 07:10:10;;;;;;;7.13;3.47;;;5.40;97.30;;;;;;5073989;28;20409;-84
2021/11/22 07:12:35;;;;;;;10.27;4.30;;;5.40;97.30;;;;;;5073518;28;20945;-83
2021/11/22 07:15:02;;;;;;;9.03;4.13;;;5.50;97.30;;;;;;5073652;28;20182;-85
2021/11/22 07:17:28;;;;;;;5.50;3.80;;;5.50;97.30;;;;;;5072409;28;20312;-83
2021/11/22 07:19:54;;;;;;;8.03;3.33;;;5.50;97.30;;;;;;5084813;28;20491;-83
2021/11/22 07:22:20;;;;;;;7.30;3.80;;;5.50;97.30;;;;;;5094328;28;20472;-84
2021/11/22 07:24:46;;;;;;;8.40;3.93;;;5.50;97.30;;;;;;5093452;28;20704;-84
2021/11/22 07:27:13;;;;;;;7.37;3.17;;;5.60;97.30;;;;;;5094069;28;20174;-83
2021/11/22 07:29:41;;;;;;;7.27;4.13;;;5.60;97.30;;;;;;5093709;28;20478;-83
2021/11/22 07:32:07;;;;;;;7.10;3.60;;;5.60;97.30;;;;;;5092333;28;20777;-83
2021/11/22 07:34:33;;;;;;;8.30;3.50;;;5.60;97.30;;;;;;5093800;28;20425;-84
2021/11/22 07:37:00;;;;;;;8.00;3.67;;;5.70;97.30;;;;;;5093475;28;20436;-83
2021/11/22 07:39:25;;;;;;;7.40;3.70;;;5.70;97.30;;;;;;5093585;28;20513;-84
2021/11/22 07:41:53;;;;;;;10.30;4.17;;;5.70;97.30;;;;;;5093179;28;20420;-84
2021/11/22 07:44:19;;;;;;;6.23;3.40;;;5.70;97.30;;;;;;5093378;28;20182;-83
2021/11/22 07:46:45;;;;;;;5.70;3.40;;;5.80;97.30;;;;;;5092936;28;21020;-84
2021/11/22 07:49:11;;;;;;;3.87;3.00;;;5.80;97.30;;;;;;5092213;28;20304;-84
2021/11/22 07:51:39;;;;;;;5.23;2.73;;;5.80;97.30;;;;;;5092079;28;20185;-84
2021/11/22 07:54:05;;;;;;;4.47;2.97;;;5.80;97.30;;;;;;5091656;28;20444;-84
2021/11/22 07:56:30;;;;;;;4.40;2.90;;;5.90;97.30;;;;;;5092137;28;21023;-84
2021/11/22 07:58:56;;;;;;;7.73;3.20;;;5.80;97.30;;;;;;5091830;28;20233;-84
2021/11/22 08:01:21;;;;;;;4.50;3.30;;;5.90;97.30;;;;;;5093224;28;20177;-84
2021/11/22 08:03:47;;;;;;;7.93;3.43;;;5.90;97.30;;;;;;5092375;28;20178;-84
2021/11/22 08:06:13;;;;;;;7.40;3.60;;;5.90;97.30;;;;;;5092222;28;20190;-84
2021/11/22 08:08:40;;;;;;;5.13;3.17;;;5.90;97.30;;;;;;5091753;28;20217;-83
2021/11/22 08:11:28;;;;;;;5.70;2.80;;;6.00;97.30;;;;;;5091262;28;20420;-84
2021/11/22 08:13:52;;;;;;;4.83;2.60;;;6.00;97.30;;;;;;5092779;28;20444;-84
2021/11/22 08:16:20;;;;;;;7.93;3.00;;;6.00;97.30;;;;;;5091304;28;21016;-83
2021/11/22 08:18:46;;;;;;;6.60;2.70;;;6.00;97.30;;;;;;5091759;28;20452;-83
2021/11/22 08:21:12;;;;;;;2.93;2.37;;;6.00;97.30;;;;;;5092988;28;20503;-84
2021/11/22 08:23:38;;;;;;;4.53;2.70;;;6.00;97.30;;;;;;5092481;28;20175;-84
2021/11/22 08:26:04;;;;;;;5.80;2.77;;;6.00;97.30;;;;;;5092490;28;20476;-84
2021/11/22 08:28:30;;;;;;;3.60;2.30;;;6.00;97.30;;;;;;5092303;28;20419;-84
2021/11/22 08:30:55;;;;;;;11.47;3.20;;;6.00;97.30;;;;;;5092072;28;20428;-85
2021/11/22 08:33:21;;;;;;;4.50;2.30;;;6.10;97.30;;;;;;5093354;28;20189;-84
2021/11/22 08:35:49;;;;;;;4.20;2.80;;;6.10;97.30;;;;;;5092225;28;20198;-83
2021/11/22 08:38:16;;;;;;;4.57;2.50;;;6.10;97.30;;;;;;5092232;28;20206;-84
2021/11/22 08:40:42;;;;;;;2.70;2.50;;;6.10;97.30;;;;;;5092425;28;20936;-84
2021/11/22 08:43:10;;;;;;;5.73;3.20;;;6.10;97.30;;;;;;5092321;28;20465;-83
2021/11/22 08:45:36;;;;;;;4.67;2.43;;;6.00;97.30;;;;;;5091808;28;20832;-85
2021/11/22 08:48:02;;;;;;;4.90;2.43;;;6.00;97.30;;;;;;5092848;28;20501;-85
2021/11/22 08:50:28;;;;;;;3.40;2.40;;;6.00;97.30;;;;;;5092356;28;20925;-84
2021/11/22 08:52:53;;;;;;;2.43;2.30;;;6.00;97.30;;;;;;5092586;28;20416;-85
2021/11/22 08:55:20;;;;;;;4.60;2.40;;;6.00;97.30;;;;;;5092374;28;20230;-84
2021/11/22 08:57:47;;;;;;;3.30;2.33;;;6.10;97.30;;;;;;5092514;28;20178;-84
2021/11/22 09:00:17;;;;;;;2.33;2.20;;;6.00;97.30;;;;;;5091890;28;20440;-81
2021/11/22 09:02:43;;;;;;;5.83;2.03;;;6.10;97.30;;;;;;5093239;28;20401;-82
2021/11/22 09:05:08;;;;;;;4.77;2.30;;;6.00;97.30;;;;;;5092657;28;20433;-84
2021/11/22 09:07:34;;;;;;;2.97;2.30;;;6.00;97.30;;;;;;5094108;28;20182;-84
2021/11/22 09:09:59;;;;;;;6.60;2.37;;;6.00;97.30;;;;;;5096367;28;20182;-85
2021/11/22 09:12:25;;;;;;;3.93;1.97;;;6.00;97.30;;;;;;5096423;28;20771;-84
2021/11/22 09:14:51;;;;;;;7.50;2.57;;;6.10;97.30;;;;;;5096112;28;20183;-84
2021/11/22 09:17:17;;;;;;;4.40;2.30;;;6.10;97.30;;;;;;5096266;28;20222;-85
2021/11/22 09:19:44;;;;;;;3.00;2.47;;;6.10;97.30;;;;;;5096341;28;20212;-84
2021/11/22 09:22:11;;;;;;;3.30;2.50;;;6.10;97.30;;;;;;5095722;28;20416;-82
2021/11/22 09:24:37;;;;;;;2.30;2.10;;;6.10;97.30;;;;;;5095120;28;20432;-84
2021/11/22 09:27:03;;;;;;;3.90;2.07;;;6.10;97.30;;;;;;5095312;28;20438;-83
2021/11/22 09:29:29;;;;;;;2.60;1.90;;;6.10;97.30;;;;;;5094874;28;20424;-84
2021/11/22 09:31:54;;;;;;;6.43;2.13;;;6.10;97.30;;;;;;5095213;28;20439;-84
2021/11/22 09:34:20;;;;;;;2.73;1.93;;;6.20;97.30;;;;;;5095077;28;20186;-84
2021/11/22 09:36:47;;;;;;;3.47;2.23;;;6.20;97.30;;;;;;5095040;28;20198;-84
2021/11/22 09:39:15;;;;;;;2.97;2.30;;;6.20;97.30;;;;;;5094763;28;20570;-84
2021/11/22 09:41:40;;;;;;;3.47;1.80;;;6.20;97.30;;;;;;5094742;28;20415;-83
2021/11/22 09:44:07;;;;;;;2.57;1.93;;;6.10;97.30;;;;;;5094424;28;20416;-83
2021/11/22 09:46:33;;;;;;;1.97;1.63;;;6.20;97.30;;;;;;5094410;28;20278;-84
2021/11/22 09:48:58;;;;;;;2.00;1.77;;;6.20;97.30;;;;;;5094409;28;20504;-84
2021/11/22 09:51:24;;;;;;;2.73;1.70;;;6.20;97.30;;;;;;5094651;28;20182;-84
2021/11/22 09:53:49;;;;;;;3.30;1.60;;;6.20;97.30;;;;;;5095689;28;20185;-83
2021/11/22 09:56:16;;;;;;;3.20;1.93;;;6.30;97.30;;;;;;5094461;28;20205;-83
2021/11/22 09:58:41;;;;;;;4.60;2.10;;;6.30;97.30;;;;;;5094130;28;20213;-84
2021/11/22 10:01:13;;;;;;;2.37;1.73;;;6.30;97.30;;;;;;5074218;28;20417;-84
2021/11/22 10:03:39;;;;;;;2.67;2.40;;;6.30;97.30;;;;;;5074219;28;20186;-84
2021/11/22 10:06:05;;;;;;;3.93;1.60;;;6.30;97.30;;;;;;5074099;28;20433;-83
2021/11/22 10:08:41;;;;;;;1.47;1.40;;;6.30;97.30;;;;;;5073830;28;20417;-83
2021/11/22 10:11:09;;;;;;;2.13;1.97;;;6.30;97.30;;;;;;5073986;28;20183;-84
2021/11/22 10:13:38;;;;;;;2.77;1.80;;;6.30;97.30;;;;;;5057440;28;20911;-84
2021/11/22 10:16:15;;;;;;;1.53;1.43;;;6.40;97.30;;;;;;5073803;28;20469;-83
2021/11/22 10:18:49;;;;;;;2.07;1.70;;;6.50;97.30;;;;;;5072835;28;20469;-81
2021/11/22 10:21:18;;;;;;;1.40;1.23;;;6.50;97.30;;;;;;5074028;28;20413;-83
2021/11/22 10:23:47;;;;;;;1.57;1.43;;;6.60;97.30;;;;;;5073647;28;20772;-84
2021/11/22 10:26:16;;;;;;;2.30;1.40;;;6.60;97.30;;;;;;5073235;28;20520;-83
2021/11/22 10:28:44;;;;;;;2.33;1.70;;;6.60;97.30;;;;;;5073659;28;20798;-83
2021/11/22 10:31:14;;;;;;;1.43;1.43;;;6.60;97.30;;;;;;5089974;28;20456;-84
2021/11/22 10:33:40;;;;;;;2.00;1.40;;;6.60;97.30;;;;;;5076138;28;20478;-83
2021/11/22 10:36:12;;;;;;;1.70;1.40;;;6.60;97.30;;;;;;5094004;28;20448;-83
2021/11/22 10:38:43;;;;;;;3.27;1.60;;;6.60;97.30;;;;;;5094913;28;20453;-84
2021/11/22 10:41:24;;;;;;;1.60;1.37;;;6.70;97.30;;;;;;5093768;28;20431;-83
2021/11/22 10:44:00;;;;;;;3.13;1.10;;;6.90;97.30;;;;;;5093662;28;20435;-83
2021/11/22 10:46:40;;;;;;;5.50;1.43;;;7.10;97.30;;;;;;5094087;28;20436;-84
2021/11/22 10:49:12;;;;;;;3.60;1.37;;;7.20;97.30;;;;;;5093396;28;20420;-83
2021/11/22 10:51:44;;;;;;;1.43;1.30;;;7.40;97.30;;;;;;5093389;28;20420;-83
2021/11/22 10:54:10;;;;;;;3.07;1.50;;;7.40;97.30;;;;;;5093680;28;20434;-83
2021/11/22 10:56:40;;;;;;;1.93;1.30;;;7.30;97.30;;;;;;5090382;28;20425;-83
2021/11/22 10:59:08;;;;;;;2.43;1.60;;;7.40;97.30;;;;;;5093235;28;20456;-83
2021/11/22 11:01:41;;;;;;;1.60;1.33;;;7.50;97.30;;;;;;5093325;28;20419;-83
2021/11/22 11:04:28;;;;;;;1.73;1.40;;;7.70;97.30;;;;;;5093082;28;20495;-83
2021/11/22 11:07:01;;;;;;;2.60;1.53;;;8.00;97.30;;;;;;5094381;28;20898;-83
2021/11/22 11:09:29;;;;;;;2.70;2.07;;;8.20;97.30;;;;;;5093341;28;20416;-83
2021/11/22 11:12:19;;;;;;;7.50;1.20;;;8.20;97.30;;;;;;5092623;28;20917;-84
2021/11/22 11:14:50;;;;;;;1.73;1.20;;;8.00;97.30;;;;;;5092918;28;20633;-83
2021/11/22 11:17:20;;;;;;;1.43;1.33;;;7.90;97.30;;;;;;5092770;28;20464;-82
2021/11/22 11:19:49;;;;;;;1.70;1.43;;;8.00;97.30;;;;;;5092770;28;20467;-83
2021/11/22 11:22:16;;;;;;;1.30;1.30;;;8.10;97.30;;;;;;5093707;28;20404;-83
2021/11/22 11:24:41;;;;;;;2.40;1.60;;;8.00;97.30;;;;;;5092912;28;20422;-83
2021/11/22 11:27:07;;;;;;;1.80;1.37;;;8.00;97.30;;;;;;5092855;28;20792;-84
2021/11/22 11:29:34;;;;;;;3.00;1.63;;;8.30;97.30;;;;;;5092638;28;20190;-83
2021/11/22 11:31:59;;;;;;;3.23;1.47;;;8.40;97.30;;;;;;5092427;28;20190;-83
2021/11/22 11:34:32;;;;;;;2.30;1.33;;;8.50;97.30;;;;;;5092361;28;20412;-83
2021/11/22 11:37:30;;;;;;;2.13;1.50;;;8.60;97.30;;;;;;5092660;28;20203;-83
2021/11/22 11:40:16;;;;;;;2.57;1.33;;;8.90;97.30;;;;;;5082836;28;20820;-84
2021/11/22 11:43:13;;;;;;;5.27;1.80;;;9.10;97.30;;;;;;5091999;28;20424;-83
2021/11/22 11:45:46;;;;;;;1.97;1.47;;;9.20;97.30;;;;;;5092350;28;20628;-83
2021/11/22 11:48:40;;;;;;;3.27;1.70;;;9.10;97.20;;;;;;5092128;28;20786;-84
2021/11/22 11:51:38;;;;;;;1.23;1.13;;;8.90;97.30;;;;;;5093953;28;20420;-83
2021/11/22 11:54:14;;;;;;;3.50;1.30;;;8.80;97.30;;;;;;5084472;28;20938;-83
2021/11/22 11:56:44;;;;;;;1.27;1.17;;;8.90;96.80;;;;;;5092012;28;20498;-83
2021/11/22 11:59:15;;;;;;;1.73;1.10;;;8.80;96.70;;;;;;5091815;28;20848;-84
2021/11/22 12:01:59;;;;;;;1.40;1.30;;;8.70;95.80;;;;;;5091697;28;20408;-83
2021/11/22 12:04:26;;;;;;;2.80;1.60;;;8.60;96.70;;;;;;5091945;28;20428;-83
2021/11/22 12:06:59;;;;;;;3.03;1.30;;;8.40;96.90;;;;;;5092197;28;20432;-83
2021/11/22 12:09:40;;;;;;;2.50;1.20;;;8.10;97.30;;;;;;5092032;28;20496;-83
2021/11/22 12:12:12;;;;;;;1.40;1.20;;;8.20;97.30;;;;;;5093067;28;20463;-83
2021/11/22 12:14:59;;;;;;;1.00;1.00;;;8.60;97.30;;;;;;5091760;28;20825;-83
2021/11/22 12:17:48;;;;;;;1.63;1.20;;;8.60;96.00;;;;;;5092011;28;20467;-84
2021/11/22 12:20:26;;;;;;;1.30;1.30;;;8.30;95.80;;;;;;5092107;28;20766;-83
2021/11/22 12:22:57;;;;;;;1.50;1.40;;;8.00;96.10;;;;;;5091757;28;20853;-83
2021/11/22 12:25:38;;;;;;;7.03;1.47;;;7.80;97.20;;;;;;5092786;28;20412;-83
2021/11/22 12:28:30;;;;;;;1.53;1.20;;;7.60;97.00;;;;;;5091590;28;20441;-83
2021/11/22 12:31:06;;;;;;;1.63;1.00;;;7.70;97.30;;;;;;5091458;28;20405;-83
2021/11/22 12:33:45;;;;;;;1.30;1.30;;;8.10;96.90;;;;;;5091435;28;20436;-83
2021/11/22 12:36:10;;;;;;;1.33;1.13;;;8.10;95.20;;;;;;5091761;28;20424;-83
2021/11/22 12:38:46;;;;;;;5.60;1.47;;;8.30;95.00;;;;;;5085576;28;20989;-83
2021/11/22 12:41:29;;;;;;;1.50;1.30;;;8.70;94.70;;;;;;5091739;28;20551;-83
2021/11/22 12:43:57;;;;;;;1.30;1.10;;;9.00;94.40;;;;;;5091519;28;20445;-83
2021/11/22 12:46:34;;;;;;;2.37;1.67;;;8.90;94.80;;;;;;5091379;28;20429;-84
2021/11/22 12:49:01;;;;;;;1.17;1.03;;;8.50;95.30;;;;;;5092226;28;20426;-85
2021/11/22 12:51:42;;;;;;;1.20;1.10;;;8.60;96.10;;;;;;5091967;28;20425;-85
2021/11/22 12:54:12;;;;;;;1.50;1.33;;;9.00;94.50;;;;;;5091717;28;20440;-86
2021/11/22 12:56:40;;;;;;;1.20;1.20;;;9.50;94.10;;;;;;5092109;28;20486;-85
2021/11/22 12:59:18;;;;;;;2.40;1.30;;;9.60;92.10;;;;;;5091756;28;20455;-86